createdAt,value
2022-08-26T00:01:56.979Z,98.69
2022-08-26T00:04:25.861Z,99.15
2022-08-26T00:06:54.249Z,98.32
2022-08-26T00:09:21.495Z,98.92
2022-08-26T00:11:48.876Z,97.69
2022-08-26T00:14:16.790Z,97.93
2022-08-26T00:16:47.908Z,98.31
2022-08-26T00:19:20.850Z,99.90
2022-08-26T00:21:49.673Z,100.00
2022-08-26T00:24:19.451Z,100.00
2022-08-26T00:26:47.061Z,100.00
2022-08-26T00:29:15.003Z,100.00
2022-08-26T00:31:42.326Z,100.00
2022-08-26T00:34:11.334Z,100.00
2022-08-26T00:36:40.742Z,100.00
2022-08-26T00:39:08.260Z,99.51
2022-08-26T00:41:38.879Z,99.50
2022-08-26T00:44:06.996Z,99.38
2022-08-26T00:46:38.609Z,99.54
2022-08-26T00:49:22.170Z,100.00
2022-08-26T00:51:58.815Z,99.96
2022-08-26T00:54:33.484Z,100.00
2022-08-26T00:57:08.597Z,100.00
2022-08-26T00:59:45.758Z,100.00
2022-08-26T01:02:20.858Z,100.00
2022-08-26T01:04:55.669Z,100.00
2022-08-26T01:07:26.311Z,100.00
2022-08-26T01:09:56.166Z,99.30
2022-08-26T01:12:28.008Z,98.72
2022-08-26T01:14:55.389Z,98.82
2022-08-26T01:17:23.512Z,99.66
2022-08-26T01:19:57.421Z,99.31
2022-08-26T01:22:50.544Z,99.14
2022-08-26T01:25:21.311Z,100.00
2022-08-26T01:27:49.220Z,98.69
2022-08-26T01:30:17.992Z,98.24
2022-08-26T01:32:45.898Z,100.00
2022-08-26T01:35:13.074Z,100.00
2022-08-26T01:37:41.149Z,99.49
2022-08-26T01:40:12.684Z,99.05
2022-08-26T01:42:41.422Z,100.00
2022-08-26T01:45:18.640Z,100.00
2022-08-26T01:47:49.007Z,100.00
2022-08-26T01:50:28.067Z,100.00
2022-08-26T01:52:59.578Z,100.00
2022-08-26T01:55:32.837Z,100.00
2022-08-26T01:58:05.567Z,100.00
2022-08-26T02:00:35.050Z,100.00
2022-08-26T02:03:17.757Z,100.00
2022-08-26T02:05:53.642Z,100.00
2022-08-26T02:08:44.635Z,100.00
2022-08-26T02:11:12.914Z,100.00
2022-08-26T02:13:45.766Z,100.00
2022-08-26T02:16:16.288Z,100.00
2022-08-26T02:18:46.854Z,100.00
2022-08-26T02:21:14.698Z,100.00
2022-08-26T02:23:41.938Z,100.00
2022-08-26T02:26:17.985Z,100.00
2022-08-26T02:28:57.547Z,100.00
2022-08-26T02:31:25.222Z,100.00
2022-08-26T02:33:52.264Z,100.00
2022-08-26T02:36:28.682Z,100.00
2022-08-26T02:38:56.054Z,100.00
2022-08-26T02:41:23.694Z,100.00
2022-08-26T02:43:51.790Z,100.00
2022-08-26T02:46:21.554Z,100.00
2022-08-26T02:48:55.336Z,100.00
2022-08-26T02:51:22.395Z,100.00
2022-08-26T02:53:50.179Z,100.00
2022-08-26T02:56:18.105Z,100.00
2022-08-26T02:58:45.372Z,100.00
2022-08-26T03:01:32.496Z,100.00
2022-08-26T03:04:00.944Z,100.00
2022-08-26T03:06:28.462Z,100.00
2022-08-26T03:08:56.014Z,100.00
2022-08-26T03:11:23.739Z,100.00
2022-08-26T03:13:51.915Z,100.00
2022-08-26T03:16:19.235Z,100.00
2022-08-26T03:18:51.961Z,100.00
2022-08-26T03:21:21.166Z,100.00
2022-08-26T03:23:48.323Z,100.00
2022-08-26T03:26:16.339Z,100.00
2022-08-26T03:29:02.206Z,100.00
2022-08-26T03:31:29.773Z,100.00
2022-08-26T03:33:59.918Z,100.00
2022-08-26T03:36:27.610Z,100.00
2022-08-26T03:38:54.568Z,100.00
2022-08-26T03:41:21.963Z,100.00
2022-08-26T03:43:51.003Z,100.00
2022-08-26T03:46:18.810Z,100.00
2022-08-26T03:48:45.934Z,100.00
2022-08-26T03:51:18.379Z,100.00
2022-08-26T03:53:48.326Z,100.00
2022-08-26T03:56:15.615Z,100.00
2022-08-26T03:58:44.528Z,100.00
2022-08-26T04:01:16.295Z,100.00
2022-08-26T04:04:00.212Z,100.00
2022-08-26T04:06:42.591Z,100.00
2022-08-26T04:09:16.159Z,100.00
2022-08-26T04:11:44.992Z,100.00
2022-08-26T04:14:20.071Z,100.00
2022-08-26T04:16:47.847Z,100.00
2022-08-26T04:19:16.764Z,100.00
2022-08-26T04:21:46.066Z,100.00
2022-08-26T04:24:15.712Z,100.00
2022-08-26T04:26:43.734Z,100.00
2022-08-26T04:29:19.949Z,100.00
2022-08-26T04:31:50.237Z,100.00
2022-08-26T04:34:24.844Z,100.00
2022-08-26T04:36:56.217Z,100.00
2022-08-26T04:39:23.480Z,100.00
2022-08-26T04:41:55.193Z,100.00
2022-08-26T04:44:25.681Z,100.00
2022-08-26T04:46:52.850Z,100.00
2022-08-26T04:49:20.944Z,100.00
2022-08-26T04:51:49.063Z,100.00
2022-08-26T04:54:16.453Z,100.00
2022-08-26T04:56:46.061Z,100.00
2022-08-26T04:59:18.019Z,100.00
2022-08-26T05:01:51.473Z,100.00
2022-08-26T05:04:20.117Z,100.00
2022-08-26T05:06:48.573Z,100.00
2022-08-26T05:09:16.118Z,99.15
2022-08-26T05:11:43.146Z,100.00
2022-08-26T05:14:10.228Z,98.42
2022-08-26T05:16:40.436Z,98.53
2022-08-26T05:19:08.591Z,98.58
2022-08-26T05:21:36.703Z,97.31
2022-08-26T05:24:04.807Z,99.72
2022-08-26T05:26:32.310Z,99.52
2022-08-26T05:28:59.541Z,99.75
2022-08-26T05:33:57.781Z,98.50
2022-08-26T05:36:27.711Z,97.71
2022-08-26T05:38:56.448Z,97.92
2022-08-26T05:41:36.582Z,95.57
2022-08-26T05:44:09.565Z,95.06
2022-08-26T05:46:37.975Z,96.08
2022-08-26T05:49:12.864Z,95.49
2022-08-26T05:51:47.670Z,94.56
2022-08-26T05:54:22.121Z,94.50
2022-08-26T05:56:50.932Z,93.68
2022-08-26T05:59:21.247Z,92.68
2022-08-26T06:01:53.112Z,93.26
2022-08-26T06:04:20.416Z,90.11
2022-08-26T06:06:47.787Z,92.61
2022-08-26T06:09:14.999Z,92.68
2022-08-26T06:11:45.466Z,92.00
2022-08-26T06:14:12.570Z,91.31
2022-08-26T06:16:43.886Z,92.35
2022-08-26T06:19:13.435Z,92.63
2022-08-26T06:21:42.606Z,91.10
2022-08-26T06:24:31.534Z,90.79
2022-08-26T06:27:01.772Z,90.76
2022-08-26T06:29:31.832Z,90.11
2022-08-26T06:31:59.357Z,86.13
2022-08-26T06:34:30.346Z,87.66
2022-08-26T06:37:01.185Z,87.00
2022-08-26T06:39:30.792Z,85.05
2022-08-26T06:42:03.211Z,80.72
2022-08-26T06:44:34.660Z,84.59
2022-08-26T06:47:01.602Z,83.72
2022-08-26T06:49:28.686Z,82.04
2022-08-26T06:52:00.008Z,81.00
2022-08-26T06:54:29.290Z,78.87
2022-08-26T06:56:57.608Z,80.94
2022-08-26T06:59:25.504Z,80.08
2022-08-26T07:01:53.345Z,80.12
2022-08-26T07:04:22.420Z,79.19
2022-08-26T07:06:52.775Z,78.82
2022-08-26T07:09:26.362Z,78.21
2022-08-26T07:11:55.610Z,75.88
2022-08-26T07:14:22.975Z,75.45
2022-08-26T07:16:50.887Z,75.62
2022-08-26T07:19:29.846Z,75.95
2022-08-26T07:22:04.538Z,74.73
2022-08-26T07:24:36.114Z,76.02
2022-08-26T07:27:06.295Z,77.30
2022-08-26T07:29:34.645Z,73.83
2022-08-26T07:32:03.120Z,71.46
2022-08-26T07:34:32.317Z,72.33
2022-08-26T07:37:00.919Z,72.00
2022-08-26T07:39:28.452Z,70.02
2022-08-26T07:42:08.038Z,70.60
2022-08-26T07:44:37.721Z,72.29
2022-08-26T07:47:24.111Z,70.39
2022-08-26T07:49:55.049Z,70.77
2022-08-26T07:52:26.659Z,71.20
2022-08-26T07:54:54.745Z,69.68
2022-08-26T07:57:21.678Z,69.68
2022-08-26T07:59:52.014Z,70.42
2022-08-26T08:02:21.550Z,70.03
2022-08-26T08:04:48.569Z,69.33
2022-08-26T08:07:15.708Z,68.46
2022-08-26T08:09:42.788Z,67.38
2022-08-26T08:12:14.233Z,67.75
2022-08-26T08:14:45.330Z,67.71
2022-08-26T08:17:15.866Z,66.35
2022-08-26T08:19:43.235Z,66.04
2022-08-26T08:22:17.545Z,66.76
2022-08-26T08:24:45.143Z,66.19
2022-08-26T08:27:12.123Z,66.51
2022-08-26T08:29:41.385Z,65.73
2022-08-26T08:32:11.553Z,64.88
2022-08-26T08:37:29.410Z,65.98
2022-08-26T08:39:56.416Z,65.31
2022-08-26T08:42:45.750Z,65.03
2022-08-26T08:45:20.295Z,64.89
2022-08-26T08:47:54.597Z,63.55
2022-08-26T08:50:34.220Z,65.19
2022-08-26T08:53:11.235Z,63.80
2022-08-26T08:56:23.782Z,63.54
2022-08-26T08:58:56.900Z,63.12
2022-08-26T09:01:30.580Z,63.66
2022-08-26T09:04:28.367Z,61.14
2022-08-26T09:06:58.870Z,59.84
2022-08-26T09:09:36.544Z,59.80
2022-08-26T09:12:05.174Z,61.89
2022-08-26T09:14:32.177Z,59.77
2022-08-26T09:17:08.237Z,59.59
2022-08-26T09:19:52.484Z,60.48
2022-08-26T09:22:30.999Z,60.53
2022-08-26T09:24:58.135Z,58.50
2022-08-26T09:27:50.563Z,59.70
2022-08-26T09:30:34.548Z,59.92
2022-08-26T09:33:01.606Z,61.02
2022-08-26T09:35:35.901Z,59.89
2022-08-26T09:38:20.455Z,57.32
2022-08-26T09:41:25.284Z,57.39
2022-08-26T09:44:16.709Z,58.51
2022-08-26T09:46:55.691Z,57.01
2022-08-26T09:49:27.065Z,55.48
2022-08-26T09:52:18.774Z,57.46
2022-08-26T09:55:17.899Z,58.90
2022-08-26T09:57:54.179Z,58.26
2022-08-26T10:00:38.563Z,58.99
2022-08-26T10:03:10.867Z,56.21
2022-08-26T10:05:45.874Z,53.14
2022-08-26T10:08:29.892Z,54.15
2022-08-26T10:11:01.534Z,52.61
2022-08-26T10:13:31.415Z,54.29
2022-08-26T10:16:01.181Z,53.87
2022-08-26T10:18:36.958Z,53.63
2022-08-26T10:21:17.971Z,52.65
2022-08-26T10:23:49.643Z,49.25
2022-08-26T10:26:27.918Z,52.10
2022-08-26T10:29:06.403Z,52.77
2022-08-26T10:31:43.579Z,53.67
2022-08-26T10:34:13.902Z,53.09
2022-08-26T10:37:14.753Z,54.07
2022-08-26T10:40:07.642Z,50.05
2022-08-26T10:42:46.682Z,50.46
2022-08-26T10:45:19.906Z,52.15
2022-08-26T10:48:00.443Z,50.51
2022-08-26T10:50:37.412Z,52.14
2022-08-26T10:53:16.742Z,49.69
2022-08-26T10:55:50.336Z,48.58
2022-08-26T10:58:38.830Z,48.06
2022-08-26T11:01:33.426Z,48.83
2022-08-26T11:04:13.032Z,47.84
2022-08-26T11:06:40.545Z,49.52
2022-08-26T11:09:09.175Z,47.80
2022-08-26T11:11:42.393Z,45.47
2022-08-26T11:14:10.567Z,45.27
2022-08-26T11:16:45.945Z,45.35
2022-08-26T11:19:56.710Z,45.14
2022-08-26T11:22:32.060Z,47.09
2022-08-26T11:24:59.083Z,47.99
2022-08-26T11:27:26.341Z,46.10
2022-08-26T11:30:06.889Z,46.52
2022-08-26T11:32:34.739Z,47.83
2022-08-26T11:35:07.327Z,48.13
2022-08-26T11:37:41.216Z,45.83
2022-08-26T11:40:16.574Z,45.32
2022-08-26T11:42:56.023Z,46.42
2022-08-26T11:45:26.651Z,45.67
2022-08-26T11:47:54.907Z,45.96
2022-08-26T11:50:26.536Z,45.79
2022-08-26T11:52:55.061Z,45.80
2022-08-26T11:55:24.113Z,46.52
2022-08-26T11:57:55.822Z,46.24
2022-08-26T12:00:31.401Z,45.99
2022-08-26T12:03:05.541Z,46.60
2022-08-26T12:05:38.527Z,47.36
2022-08-26T12:08:13.831Z,45.76
2022-08-26T12:10:40.907Z,44.96
2022-08-26T12:13:08.765Z,44.22
2022-08-26T12:15:36.296Z,43.12
2022-08-26T12:18:29.348Z,43.52
2022-08-26T12:21:00.495Z,45.16
2022-08-26T12:23:36.866Z,45.22
2022-08-26T12:26:26.798Z,44.57
2022-08-26T12:29:12.583Z,43.98
2022-08-26T12:31:48.248Z,43.60
2022-08-26T12:34:17.823Z,44.34
2022-08-26T12:36:48.977Z,44.30
2022-08-26T12:39:30.020Z,43.64
2022-08-26T12:42:01.805Z,43.34
2022-08-26T12:44:42.520Z,44.86
2022-08-26T12:47:42.567Z,44.33
2022-08-26T12:50:21.738Z,43.72
2022-08-26T12:53:00.102Z,42.49
2022-08-26T12:55:33.036Z,42.73
2022-08-26T12:58:18.498Z,41.81
2022-08-26T13:00:47.493Z,42.41
2022-08-26T13:03:39.082Z,42.86
2022-08-26T13:06:22.343Z,43.30
2022-08-26T13:08:54.393Z,42.61
2022-08-26T13:11:54.716Z,42.64
2022-08-26T13:14:24.656Z,44.96
2022-08-26T13:16:53.148Z,45.92
2022-08-26T13:19:25.603Z,44.58
2022-08-26T13:21:57.938Z,46.56
2022-08-26T13:24:38.720Z,44.52
2022-08-26T13:27:09.061Z,43.71
2022-08-26T13:29:36.207Z,41.55
2022-08-26T13:32:04.891Z,42.10
2022-08-26T13:34:32.673Z,41.60
2022-08-26T13:36:59.850Z,41.03
2022-08-26T13:39:27.161Z,41.11
2022-08-26T13:41:54.964Z,40.40
2022-08-26T13:44:22.211Z,43.00
2022-08-26T13:46:49.250Z,41.83
2022-08-26T13:49:16.298Z,42.61
2022-08-26T13:51:44.450Z,40.67
2022-08-26T13:54:11.512Z,42.79
2022-08-26T13:56:38.531Z,40.97
2022-08-26T13:59:06.465Z,39.36
2022-08-26T14:01:35.086Z,40.49
2022-08-26T14:04:03.260Z,40.71
2022-08-26T14:06:30.742Z,41.94
2022-08-26T14:08:58.227Z,42.59
2022-08-26T14:11:25.369Z,42.76
2022-08-26T14:13:52.492Z,44.24
2022-08-26T14:16:25.797Z,43.94
2022-08-26T14:18:53.599Z,41.77
2022-08-26T14:21:21.105Z,39.88
2022-08-26T14:23:48.516Z,40.78
2022-08-26T14:26:28.088Z,42.72
2022-08-26T14:28:59.979Z,42.28
2022-08-26T14:31:29.543Z,42.10
2022-08-26T14:34:04.030Z,39.77
2022-08-26T14:36:32.597Z,38.74
2022-08-26T14:39:05.021Z,38.97
2022-08-26T14:41:33.839Z,37.82
2022-08-26T14:44:02.694Z,40.36
2022-08-26T14:46:33.573Z,41.18
2022-08-26T14:49:03.572Z,41.70
2022-08-26T14:51:32.544Z,41.22
2022-08-26T14:54:14.872Z,38.43
2022-08-26T14:56:54.121Z,40.37
2022-08-26T14:59:31.053Z,40.61
2022-08-26T15:01:58.891Z,41.36
2022-08-26T15:04:26.287Z,43.60
2022-08-26T15:06:55.865Z,43.98
2022-08-26T15:09:23.866Z,41.72
2022-08-26T15:11:51.293Z,41.14
2022-08-26T15:14:19.490Z,41.25
2022-08-26T15:16:52.517Z,41.30
2022-08-26T15:19:20.479Z,42.41
2022-08-26T15:21:47.905Z,42.22
2022-08-26T15:24:18.338Z,41.13
2022-08-26T15:26:48.143Z,40.60
2022-08-26T15:29:15.536Z,40.09
2022-08-26T15:31:43.227Z,40.69
2022-08-26T15:34:16.348Z,40.11
2022-08-26T15:36:46.414Z,40.37
2022-08-26T15:39:15.360Z,40.36
2022-08-26T15:41:42.787Z,39.26
2022-08-26T15:44:10.316Z,38.19
2022-08-26T15:46:38.524Z,38.37
2022-08-26T15:49:06.490Z,41.53
2022-08-26T15:51:46.065Z,43.54
2022-08-26T15:54:14.484Z,43.64
2022-08-26T15:56:41.488Z,42.24
2022-08-26T15:59:11.725Z,43.17
2022-08-26T16:01:39.935Z,43.90
2022-08-26T16:04:07.443Z,42.50
2022-08-26T16:06:37.586Z,41.10
2022-08-26T16:09:05.986Z,41.62
2022-08-26T16:11:34.177Z,41.21
2022-08-26T16:14:01.162Z,40.34
2022-08-26T16:16:28.386Z,38.93
2022-08-26T16:18:55.558Z,39.19
2022-08-26T16:21:28.692Z,37.64
2022-08-26T16:23:56.908Z,36.86
2022-08-26T16:26:27.781Z,36.70
2022-08-26T16:28:55.036Z,35.62
2022-08-26T16:31:22.449Z,36.67
2022-08-26T16:33:49.686Z,38.47
2022-08-26T16:36:17.195Z,39.90
2022-08-26T16:38:56.572Z,40.23
2022-08-26T16:41:28.694Z,41.52
2022-08-26T16:43:56.833Z,42.35
2022-08-26T16:46:26.074Z,42.30
2022-08-26T16:48:58.038Z,43.08
2022-08-26T16:51:27.599Z,43.36
2022-08-26T16:53:56.370Z,44.33
2022-08-26T16:56:30.614Z,44.35
2022-08-26T16:59:04.394Z,45.09
2022-08-26T17:01:31.653Z,44.96
2022-08-26T17:03:58.709Z,45.21
2022-08-26T17:06:25.790Z,46.42
2022-08-26T17:08:53.254Z,47.01
2022-08-26T17:11:20.282Z,47.97
2022-08-26T17:13:51.853Z,48.10
2022-08-26T17:16:21.283Z,48.60
2022-08-26T17:18:50.516Z,49.49
2022-08-26T17:21:18.553Z,50.03
2022-08-26T17:23:46.523Z,50.31
2022-08-26T17:26:13.786Z,50.91
2022-08-26T17:28:41.482Z,51.31
2022-08-26T17:31:10.572Z,52.10
2022-08-26T17:33:38.224Z,52.48
2022-08-26T17:36:06.995Z,53.08
2022-08-26T17:38:34.558Z,52.97
2022-08-26T17:41:01.792Z,53.58
2022-08-26T17:43:29.398Z,53.54
2022-08-26T17:46:06.865Z,54.64
2022-08-26T17:48:36.127Z,55.41
2022-08-26T17:51:12.327Z,55.87
2022-08-26T17:53:40.196Z,55.64
2022-08-26T17:56:12.994Z,56.70
2022-08-26T17:58:40.831Z,57.15
2022-08-26T18:01:15.639Z,57.94
2022-08-26T18:03:43.098Z,58.43
2022-08-26T18:06:11.926Z,58.40
2022-08-26T18:08:40.308Z,59.01
2022-08-26T18:11:09.862Z,58.94
2022-08-26T18:13:37.616Z,59.40
2022-08-26T18:16:13.311Z,60.23
2022-08-26T18:18:40.495Z,59.75
2022-08-26T18:21:16.651Z,60.03
2022-08-26T18:23:45.083Z,59.73
2022-08-26T18:26:31.345Z,60.27
2022-08-26T18:28:58.606Z,60.85
2022-08-26T18:31:25.965Z,60.92
2022-08-26T18:33:53.472Z,60.46
2022-08-26T18:36:29.678Z,60.65
2022-08-26T18:38:57.741Z,60.74
2022-08-26T18:41:27.896Z,60.79
2022-08-26T18:43:55.428Z,60.64
2022-08-26T18:46:25.333Z,61.35
2022-08-26T18:48:54.598Z,61.44
2022-08-26T18:51:29.765Z,62.07
2022-08-26T18:53:57.485Z,61.75
2022-08-26T18:56:24.490Z,60.97
2022-08-26T18:58:51.682Z,60.92
2022-08-26T19:01:19.029Z,61.68
2022-08-26T19:03:46.681Z,62.40
2022-08-26T19:06:19.142Z,63.04
2022-08-26T19:08:49.929Z,64.27
2022-08-26T19:11:31.311Z,63.79
2022-08-26T19:14:04.370Z,64.32
2022-08-26T19:16:31.597Z,64.67
2022-08-26T19:18:59.026Z,63.51
2022-08-26T19:21:26.379Z,64.23
2022-08-26T19:23:57.295Z,64.42
2022-08-26T19:26:25.147Z,64.80
2022-08-26T19:28:53.002Z,65.67
2022-08-26T19:31:20.530Z,65.57
2022-08-26T19:33:47.525Z,66.35
2022-08-26T19:36:25.592Z,65.96
2022-08-26T19:38:53.791Z,66.54
2022-08-26T19:41:36.979Z,66.72
2022-08-26T19:44:13.005Z,66.92
2022-08-26T19:46:40.321Z,67.90
2022-08-26T19:49:07.336Z,67.97
2022-08-26T19:51:35.702Z,68.11
2022-08-26T19:54:03.198Z,67.34
2022-08-26T19:56:30.260Z,68.87
2022-08-26T19:58:57.488Z,68.62
2022-08-26T20:01:25.284Z,68.74
2022-08-26T20:03:52.685Z,67.52
2022-08-26T20:06:20.364Z,69.04
2022-08-26T20:08:47.987Z,70.06
2022-08-26T20:11:19.118Z,70.48
2022-08-26T20:13:47.677Z,70.34
2022-08-26T20:16:16.058Z,70.48
2022-08-26T20:19:03.299Z,70.58
2022-08-26T20:21:34.286Z,71.44
2022-08-26T20:24:18.044Z,72.21
2022-08-26T20:26:45.554Z,72.70
2022-08-26T20:29:16.363Z,74.00
2022-08-26T20:31:44.876Z,74.21
2022-08-26T20:34:14.485Z,74.50
2022-08-26T20:36:42.658Z,74.85
2022-08-26T20:39:11.052Z,75.30
2022-08-26T20:41:38.994Z,75.58
2022-08-26T20:44:07.064Z,75.46
2022-08-26T20:46:35.025Z,75.42
2022-08-26T20:49:02.580Z,75.87
2022-08-26T20:51:33.630Z,75.37
2022-08-26T20:54:01.527Z,75.79
2022-08-26T20:56:28.490Z,76.48
2022-08-26T20:58:58.865Z,75.64
2022-08-26T21:01:30.825Z,76.25
2022-08-26T21:03:57.842Z,76.14
2022-08-26T21:06:24.925Z,76.81
2022-08-26T21:08:52.156Z,77.72
2022-08-26T21:11:20.024Z,79.07
2022-08-26T21:14:04.285Z,79.56
2022-08-26T21:16:38.815Z,80.13
2022-08-26T21:19:07.577Z,81.44
2022-08-26T21:21:35.145Z,81.70
2022-08-26T21:24:02.403Z,81.75
2022-08-26T21:26:29.458Z,81.54
2022-08-26T21:28:56.628Z,80.72
2022-08-26T21:31:25.395Z,80.07
2022-08-26T21:33:53.341Z,80.01
2022-08-26T21:36:20.757Z,80.79
2022-08-26T21:38:47.901Z,81.74
2022-08-26T21:41:20.942Z,83.17
2022-08-26T21:43:50.235Z,83.47
2022-08-26T21:46:23.654Z,83.55
2022-08-26T21:49:02.751Z,84.23
2022-08-26T21:51:32.792Z,84.47
2022-08-26T21:54:01.515Z,85.23
2022-08-26T21:56:31.734Z,84.66
2022-08-26T21:58:59.724Z,84.58
2022-08-26T22:01:32.066Z,86.03
2022-08-26T22:03:59.194Z,86.15
2022-08-26T22:06:27.664Z,85.71
2022-08-26T22:08:56.044Z,84.06
2022-08-26T22:11:24.106Z,82.99
2022-08-26T22:13:51.517Z,83.02
2022-08-26T22:16:19.475Z,82.99
2022-08-26T22:18:46.482Z,83.44
2022-08-26T22:21:24.820Z,82.72
2022-08-26T22:23:56.167Z,82.92
2022-08-26T22:26:29.676Z,84.86
2022-08-26T22:28:59.511Z,84.29
2022-08-26T22:31:37.564Z,85.81
2022-08-26T22:34:12.336Z,84.91
2022-08-26T22:36:43.586Z,85.26
2022-08-26T22:39:13.088Z,87.41
2022-08-26T22:41:40.936Z,86.86
2022-08-26T22:44:08.006Z,87.29
2022-08-26T22:46:36.889Z,87.61
2022-08-26T22:49:07.148Z,87.89
2022-08-26T22:51:34.754Z,88.05
2022-08-26T22:54:01.718Z,89.51
2022-08-26T22:56:28.831Z,90.50
2022-08-26T22:58:55.750Z,90.71
2022-08-26T23:01:22.789Z,91.56
2022-08-26T23:03:50.082Z,91.75
2022-08-26T23:06:17.192Z,92.65
2022-08-26T23:08:46.419Z,93.42
2022-08-26T23:11:14.470Z,93.97
2022-08-26T23:13:41.548Z,93.80
2022-08-26T23:16:11.207Z,93.80
2022-08-26T23:18:39.470Z,93.79
2022-08-26T23:21:07.911Z,95.22
2022-08-26T23:23:35.480Z,95.20
2022-08-26T23:26:05.998Z,96.28
2022-08-26T23:28:34.886Z,95.66
2022-08-26T23:31:01.905Z,96.19
2022-08-26T23:33:49.130Z,96.50
2022-08-26T23:36:17.871Z,97.67
2022-08-26T23:38:52.590Z,98.05
2022-08-26T23:41:22.477Z,96.78
2022-08-26T23:43:50.134Z,96.02
2022-08-26T23:46:18.302Z,93.59
2022-08-26T23:48:45.378Z,93.65
2022-08-26T23:51:30.973Z,94.02
2022-08-26T23:53:58.130Z,91.97
2022-08-26T23:56:25.420Z,88.28
2022-08-26T23:58:54.094Z,87.63
